sensor_id;sensor_type;location;lat;lon;timestamp;temperature;humidity
1614;DHT22;800;48.824;9.346;2023-05-07T00:02:21;22.60;50.10
1614;DHT22;800;48.824;9.346;2023-05-07T00:04:46;22.60;50.40
1614;DHT22;800;48.824;9.346;2023-05-07T00:07:12;22.50;50.50
1614;DHT22;800;48.824;9.346;2023-05-07T00:09:37;22.40;50.70
1614;DHT22;800;48.824;9.346;2023-05-07T00:12:03;22.30;50.90
1614;DHT22;800;48.824;9.346;2023-05-07T00:14:29;22.20;51.00
1614;DHT22;800;48.824;9.346;2023-05-07T00:16:55;22.20;51.30
1614;DHT22;800;48.824;9.346;2023-05-07T00:19:20;22.20;51.60
1614;DHT22;800;48.824;9.346;2023-05-07T00:21:46;22.20;51.50
1614;DHT22;800;48.824;9.346;2023-05-07T00:24:12;22.20;51.50
1614;DHT22;800;48.824;9.346;2023-05-07T00:26:37;22.20;52.00
1614;DHT22;800;48.824;9.346;2023-05-07T00:29:03;22.20;51.70
1614;DHT22;800;48.824;9.346;2023-05-07T00:31:28;22.10;51.90
1614;DHT22;800;48.824;9.346;2023-05-07T00:33:54;22.10;51.90
1614;DHT22;800;48.824;9.346;2023-05-07T00:36:19;22.10;51.80
1614;DHT22;800;48.824;9.346;2023-05-07T00:38:45;22.00;51.70
1614;DHT22;800;48.824;9.346;2023-05-07T00:41:11;21.90;51.90
1614;DHT22;800;48.824;9.346;2023-05-07T00:43:36;21.80;52.10
1614;DHT22;800;48.824;9.346;2023-05-07T00:46:02;21.80;52.20
1614;DHT22;800;48.824;9.346;2023-05-07T00:48:27;21.60;52.60
1614;DHT22;800;48.824;9.346;2023-05-07T00:50:53;21.70;52.70
1614;DHT22;800;48.824;9.346;2023-05-07T00:53:19;21.80;52.40
1614;DHT22;800;48.824;9.346;2023-05-07T00:55:45;21.80;52.10
1614;DHT22;800;48.824;9.346;2023-05-07T00:58:11;21.90;52.20
1614;DHT22;800;48.824;9.346;2023-05-07T01:00:37;21.80;52.00
1614;DHT22;800;48.824;9.346;2023-05-07T01:03:02;21.90;52.00
1614;DHT22;800;48.824;9.346;2023-05-07T01:05:28;21.90;51.70
1614;DHT22;800;48.824;9.346;2023-05-07T01:07:56;22.00;51.90
1614;DHT22;800;48.824;9.346;2023-05-07T01:10:22;22.00;51.70
1614;DHT22;800;48.824;9.346;2023-05-07T01:12:49;22.10;51.70
1614;DHT22;800;48.824;9.346;2023-05-07T01:15:15;22.10;51.50
1614;DHT22;800;48.824;9.346;2023-05-07T01:17:42;22.10;51.60
1614;DHT22;800;48.824;9.346;2023-05-07T01:20:08;22.10;51.70
1614;DHT22;800;48.824;9.346;2023-05-07T01:22:37;22.10;51.60
1614;DHT22;800;48.824;9.346;2023-05-07T01:25:03;22.00;51.70
1614;DHT22;800;48.824;9.346;2023-05-07T01:27:29;22.10;51.60
1614;DHT22;800;48.824;9.346;2023-05-07T01:29:55;22.10;51.60
1614;DHT22;800;48.824;9.346;2023-05-07T01:32:38;22.10;51.60
1614;DHT22;800;48.824;9.346;2023-05-07T01:35:07;22.10;51.60
1614;DHT22;800;48.824;9.346;2023-05-07T01:37:33;22.00;51.50
1614;DHT22;800;48.824;9.346;2023-05-07T01:39:59;21.90;51.50
1614;DHT22;800;48.824;9.346;2023-05-07T01:42:25;21.90;51.60
1614;DHT22;800;48.824;9.346;2023-05-07T01:44:51;21.80;51.70
1614;DHT22;800;48.824;9.346;2023-05-07T01:47:17;21.80;52.00
1614;DHT22;800;48.824;9.346;2023-05-07T01:49:43;21.70;52.00
1614;DHT22;800;48.824;9.346;2023-05-07T01:52:10;21.70;52.20
1614;DHT22;800;48.824;9.346;2023-05-07T01:54:37;21.70;52.10
1614;DHT22;800;48.824;9.346;2023-05-07T01:57:02;21.60;52.10
1614;DHT22;800;48.824;9.346;2023-05-07T01:59:28;21.60;52.20
1614;DHT22;800;48.824;9.346;2023-05-07T02:01:53;21.50;52.60
1614;DHT22;800;48.824;9.346;2023-05-07T02:04:19;21.30;53.00
1614;DHT22;800;48.824;9.346;2023-05-07T02:06:45;21.30;52.90
1614;DHT22;800;48.824;9.346;2023-05-07T02:09:11;21.30;52.80
1614;DHT22;800;48.824;9.346;2023-05-07T02:11:36;21.40;52.60
1614;DHT22;800;48.824;9.346;2023-05-07T02:14:02;21.40;52.40
1614;DHT22;800;48.824;9.346;2023-05-07T02:16:27;21.40;52.30
1614;DHT22;800;48.824;9.346;2023-05-07T02:18:53;21.50;52.20
1614;DHT22;800;48.824;9.346;2023-05-07T02:21:18;21.60;52.30
1614;DHT22;800;48.824;9.346;2023-05-07T02:23:44;21.70;52.00
1614;DHT22;800;48.824;9.346;2023-05-07T02:26:10;21.70;52.10
1614;DHT22;800;48.824;9.346;2023-05-07T02:28:36;21.70;52.00
1614;DHT22;800;48.824;9.346;2023-05-07T02:31:05;21.80;51.80
1614;DHT22;800;48.824;9.346;2023-05-07T02:33:30;21.70;51.70
1614;DHT22;800;48.824;9.346;2023-05-07T02:35:56;21.80;51.80
1614;DHT22;800;48.824;9.346;2023-05-07T02:38:22;21.70;51.70
1614;DHT22;800;48.824;9.346;2023-05-07T02:40:48;21.70;51.80
1614;DHT22;800;48.824;9.346;2023-05-07T02:43:13;21.80;51.90
1614;DHT22;800;48.824;9.346;2023-05-07T02:45:39;21.80;51.60
1614;DHT22;800;48.824;9.346;2023-05-07T02:48:05;21.80;51.40
1614;DHT22;800;48.824;9.346;2023-05-07T02:50:31;21.80;51.60
1614;DHT22;800;48.824;9.346;2023-05-07T02:52:57;21.80;51.60
1614;DHT22;800;48.824;9.346;2023-05-07T02:55:23;21.80;51.40
1614;DHT22;800;48.824;9.346;2023-05-07T02:57:49;21.70;51.20
1614;DHT22;800;48.824;9.346;2023-05-07T03:00:17;21.70;51.40
1614;DHT22;800;48.824;9.346;2023-05-07T03:02:44;21.60;51.50
1614;DHT22;800;48.824;9.346;2023-05-07T03:05:10;21.50;51.50
1614;DHT22;800;48.824;9.346;2023-05-07T03:07:36;21.40;51.60
1614;DHT22;800;48.824;9.346;2023-05-07T03:10:02;21.30;51.60
1614;DHT22;800;48.824;9.346;2023-05-07T03:12:28;21.20;51.80
1614;DHT22;800;48.824;9.346;2023-05-07T03:14:53;21.10;51.80
1614;DHT22;800;48.824;9.346;2023-05-07T03:17:20;21.10;52.20
1614;DHT22;800;48.824;9.346;2023-05-07T03:19:45;21.00;52.30
1614;DHT22;800;48.824;9.346;2023-05-07T03:22:11;21.00;52.50
1614;DHT22;800;48.824;9.346;2023-05-07T03:24:36;21.00;52.60
1614;DHT22;800;48.824;9.346;2023-05-07T03:27:02;21.00;52.60
1614;DHT22;800;48.824;9.346;2023-05-07T03:29:28;20.90;52.80
1614;DHT22;800;48.824;9.346;2023-05-07T03:31:53;20.80;52.60
1614;DHT22;800;48.824;9.346;2023-05-07T03:34:19;20.80;52.60
1614;DHT22;800;48.824;9.346;2023-05-07T03:36:48;20.70;52.60
1614;DHT22;800;48.824;9.346;2023-05-07T03:39:14;20.60;52.80
1614;DHT22;800;48.824;9.346;2023-05-07T03:41:39;20.50;52.90
1614;DHT22;800;48.824;9.346;2023-05-07T03:44:05;20.50;53.00
1614;DHT22;800;48.824;9.346;2023-05-07T03:46:31;20.50;53.20
1614;DHT22;800;48.824;9.346;2023-05-07T03:48:58;20.40;54.10
1614;DHT22;800;48.824;9.346;2023-05-07T03:51:23;20.30;54.00
1614;DHT22;800;48.824;9.346;2023-05-07T03:53:49;20.40;53.90
1614;DHT22;800;48.824;9.346;2023-05-07T03:56:18;20.50;53.40
1614;DHT22;800;48.824;9.346;2023-05-07T03:58:44;20.70;53.40
1614;DHT22;800;48.824;9.346;2023-05-07T04:01:09;20.80;53.00
1614;DHT22;800;48.824;9.346;2023-05-07T04:03:35;20.80;52.90
1614;DHT22;800;48.824;9.346;2023-05-07T04:06:00;20.80;53.00
1614;DHT22;800;48.824;9.346;2023-05-07T04:08:26;20.70;52.70
1614;DHT22;800;48.824;9.346;2023-05-07T04:10:56;20.80;53.00
1614;DHT22;800;48.824;9.346;2023-05-07T04:13:21;20.80;52.60
1614;DHT22;800;48.824;9.346;2023-05-07T04:15:47;20.80;52.60
1614;DHT22;800;48.824;9.346;2023-05-07T04:18:14;20.80;52.70
1614;DHT22;800;48.824;9.346;2023-05-07T04:20:40;20.80;53.10
1614;DHT22;800;48.824;9.346;2023-05-07T04:23:05;20.80;52.50
1614;DHT22;800;48.824;9.346;2023-05-07T04:25:32;20.90;52.50
1614;DHT22;800;48.824;9.346;2023-05-07T04:27:58;21.00;52.30
1614;DHT22;800;48.824;9.346;2023-05-07T04:30:24;20.90;52.00
1614;DHT22;800;48.824;9.346;2023-05-07T04:32:50;20.90;52.00
1614;DHT22;800;48.824;9.346;2023-05-07T04:35:15;20.90;52.00
1614;DHT22;800;48.824;9.346;2023-05-07T04:37:41;20.90;52.50
1614;DHT22;800;48.824;9.346;2023-05-07T04:40:07;20.80;52.60
1614;DHT22;800;48.824;9.346;2023-05-07T04:42:33;20.90;52.50
1614;DHT22;800;48.824;9.346;2023-05-07T04:44:58;20.90;52.70
1614;DHT22;800;48.824;9.346;2023-05-07T04:47:24;20.90;52.40
1614;DHT22;800;48.824;9.346;2023-05-07T04:49:49;20.90;52.40
1614;DHT22;800;48.824;9.346;2023-05-07T04:52:15;20.90;52.20
1614;DHT22;800;48.824;9.346;2023-05-07T04:54:42;20.50;53.30
1614;DHT22;800;48.824;9.346;2023-05-07T04:57:07;20.60;53.60
1614;DHT22;800;48.824;9.346;2023-05-07T04:59:33;20.70;53.50
1614;DHT22;800;48.824;9.346;2023-05-07T05:01:59;20.70;53.40
1614;DHT22;800;48.824;9.346;2023-05-07T05:04:25;20.80;53.20
1614;DHT22;800;48.824;9.346;2023-05-07T05:06:51;20.80;52.80
1614;DHT22;800;48.824;9.346;2023-05-07T05:09:16;20.90;53.10
1614;DHT22;800;48.824;9.346;2023-05-07T05:11:42;20.80;53.00
1614;DHT22;800;48.824;9.346;2023-05-07T05:14:09;20.90;53.00
1614;DHT22;800;48.824;9.346;2023-05-07T05:16:34;21.00;52.80
1614;DHT22;800;48.824;9.346;2023-05-07T05:19:02;20.90;52.80
1614;DHT22;800;48.824;9.346;2023-05-07T05:21:27;20.90;53.00
1614;DHT22;800;48.824;9.346;2023-05-07T05:23:53;20.90;52.70
1614;DHT22;800;48.824;9.346;2023-05-07T05:26:19;21.00;52.60
1614;DHT22;800;48.824;9.346;2023-05-07T05:28:46;21.10;52.70
1614;DHT22;800;48.824;9.346;2023-05-07T05:31:12;21.20;52.30
1614;DHT22;800;48.824;9.346;2023-05-07T05:33:37;21.20;52.20
1614;DHT22;800;48.824;9.346;2023-05-07T05:36:03;21.30;52.60
1614;DHT22;800;48.824;9.346;2023-05-07T05:38:29;21.30;52.40
1614;DHT22;800;48.824;9.346;2023-05-07T05:40:55;21.40;51.90
1614;DHT22;800;48.824;9.346;2023-05-07T05:43:20;21.00;52.80
1614;DHT22;800;48.824;9.346;2023-05-07T05:45:46;21.00;52.90
1614;DHT22;800;48.824;9.346;2023-05-07T05:48:12;21.20;52.50
1614;DHT22;800;48.824;9.346;2023-05-07T05:50:37;21.30;52.10
1614;DHT22;800;48.824;9.346;2023-05-07T05:53:03;21.40;51.90
1614;DHT22;800;48.824;9.346;2023-05-07T05:55:28;21.50;51.90
1614;DHT22;800;48.824;9.346;2023-05-07T05:57:54;21.50;52.00
1614;DHT22;800;48.824;9.346;2023-05-07T06:00:20;21.50;51.80
1614;DHT22;800;48.824;9.346;2023-05-07T06:02:48;21.60;51.70
1614;DHT22;800;48.824;9.346;2023-05-07T06:05:13;21.70;51.70
1614;DHT22;800;48.824;9.346;2023-05-07T06:07:39;21.70;51.40
1614;DHT22;800;48.824;9.346;2023-05-07T06:10:05;21.80;51.30
1614;DHT22;800;48.824;9.346;2023-05-07T06:12:31;21.80;51.20
1614;DHT22;800;48.824;9.346;2023-05-07T06:14:57;21.40;51.40
1614;DHT22;800;48.824;9.346;2023-05-07T06:17:22;21.50;51.80
1614;DHT22;800;48.824;9.346;2023-05-07T06:19:48;21.20;52.30
1614;DHT22;800;48.824;9.346;2023-05-07T06:22:13;21.20;52.30
1614;DHT22;800;48.824;9.346;2023-05-07T06:24:39;21.30;52.20
1614;DHT22;800;48.824;9.346;2023-05-07T06:27:05;21.10;52.40
1614;DHT22;800;48.824;9.346;2023-05-07T06:29:30;21.40;52.60
1614;DHT22;800;48.824;9.346;2023-05-07T06:32:09;21.10;51.50
1614;DHT22;800;48.824;9.346;2023-05-07T06:34:35;21.30;51.70
1614;DHT22;800;48.824;9.346;2023-05-07T06:37:01;21.20;51.50
1614;DHT22;800;48.824;9.346;2023-05-07T06:39:27;21.40;52.00
1614;DHT22;800;48.824;9.346;2023-05-07T06:41:53;21.40;51.80
1614;DHT22;800;48.824;9.346;2023-05-07T06:44:18;21.30;51.90
1614;DHT22;800;48.824;9.346;2023-05-07T06:46:44;21.30;52.10
1614;DHT22;800;48.824;9.346;2023-05-07T06:49:12;21.20;52.50
1614;DHT22;800;48.824;9.346;2023-05-07T06:51:38;21.40;52.40
1614;DHT22;800;48.824;9.346;2023-05-07T06:54:03;21.70;52.40
1614;DHT22;800;48.824;9.346;2023-05-07T06:56:30;21.90;51.70
1614;DHT22;800;48.824;9.346;2023-05-07T06:58:56;22.10;51.30
1614;DHT22;800;48.824;9.346;2023-05-07T07:01:21;22.10;51.10
1614;DHT22;800;48.824;9.346;2023-05-07T07:03:47;22.00;51.60
1614;DHT22;800;48.824;9.346;2023-05-07T07:06:12;22.30;51.60
1614;DHT22;800;48.824;9.346;2023-05-07T07:08:38;22.40;50.80
1614;DHT22;800;48.824;9.346;2023-05-07T07:11:04;22.30;50.90
1614;DHT22;800;48.824;9.346;2023-05-07T07:13:30;22.40;50.80
1614;DHT22;800;48.824;9.346;2023-05-07T07:15:56;22.70;50.60
1614;DHT22;800;48.824;9.346;2023-05-07T07:18:21;22.80;50.40
1614;DHT22;800;48.824;9.346;2023-05-07T07:20:47;23.10;50.00
1614;DHT22;800;48.824;9.346;2023-05-07T07:23:13;23.50;50.10
1614;DHT22;800;48.824;9.346;2023-05-07T07:25:39;23.80;49.50
1614;DHT22;800;48.824;9.346;2023-05-07T07:28:05;24.20;48.70
1614;DHT22;800;48.824;9.346;2023-05-07T07:30:31;24.20;47.20
1614;DHT22;800;48.824;9.346;2023-05-07T07:32:56;24.20;47.30
1614;DHT22;800;48.824;9.346;2023-05-07T07:35:28;24.20;47.20
1614;DHT22;800;48.824;9.346;2023-05-07T07:37:53;24.30;46.70
1614;DHT22;800;48.824;9.346;2023-05-07T07:40:19;24.40;46.60
1614;DHT22;800;48.824;9.346;2023-05-07T07:42:44;24.50;46.60
1614;DHT22;800;48.824;9.346;2023-05-07T07:45:10;24.30;46.60
1614;DHT22;800;48.824;9.346;2023-05-07T07:47:36;24.40;46.70
1614;DHT22;800;48.824;9.346;2023-05-07T07:50:01;24.40;46.90
1614;DHT22;800;48.824;9.346;2023-05-07T07:52:27;24.50;46.70
1614;DHT22;800;48.824;9.346;2023-05-07T07:54:52;24.80;46.40
1614;DHT22;800;48.824;9.346;2023-05-07T07:57:18;25.00;46.40
1614;DHT22;800;48.824;9.346;2023-05-07T07:59:43;25.10;45.90
1614;DHT22;800;48.824;9.346;2023-05-07T08:02:09;25.30;46.10
1614;DHT22;800;48.824;9.346;2023-05-07T08:04:35;25.60;45.70
1614;DHT22;800;48.824;9.346;2023-05-07T08:07:02;25.70;45.50
1614;DHT22;800;48.824;9.346;2023-05-07T08:09:28;25.90;45.10
1614;DHT22;800;48.824;9.346;2023-05-07T08:11:53;26.10;44.70
1614;DHT22;800;48.824;9.346;2023-05-07T08:14:19;26.40;44.20
1614;DHT22;800;48.824;9.346;2023-05-07T08:16:44;26.50;44.50
1614;DHT22;800;48.824;9.346;2023-05-07T08:19:10;26.70;44.70
1614;DHT22;800;48.824;9.346;2023-05-07T08:21:39;26.70;43.80
1614;DHT22;800;48.824;9.346;2023-05-07T08:24:05;26.80;43.70
1614;DHT22;800;48.824;9.346;2023-05-07T08:26:31;26.90;43.20
1614;DHT22;800;48.824;9.346;2023-05-07T08:28:56;27.10;43.30
1614;DHT22;800;48.824;9.346;2023-05-07T08:31:22;27.00;43.70
1614;DHT22;800;48.824;9.346;2023-05-07T08:33:47;27.20;44.00
1614;DHT22;800;48.824;9.346;2023-05-07T08:36:13;27.50;44.30
1614;DHT22;800;48.824;9.346;2023-05-07T08:38:38;27.40;42.60
1614;DHT22;800;48.824;9.346;2023-05-07T08:41:06;27.50;43.00
1614;DHT22;800;48.824;9.346;2023-05-07T08:43:33;27.60;42.50
1614;DHT22;800;48.824;9.346;2023-05-07T08:46:01;27.70;42.70
1614;DHT22;800;48.824;9.346;2023-05-07T08:48:29;27.90;43.00
1614;DHT22;800;48.824;9.346;2023-05-07T08:50:58;27.80;42.30
1614;DHT22;800;48.824;9.346;2023-05-07T08:53:24;27.60;43.00
1614;DHT22;800;48.824;9.346;2023-05-07T08:55:50;27.80;42.60
1614;DHT22;800;48.824;9.346;2023-05-07T08:58:16;27.80;42.00
1614;DHT22;800;48.824;9.346;2023-05-07T09:00:42;27.60;42.20
1614;DHT22;800;48.824;9.346;2023-05-07T09:03:07;27.70;42.20
1614;DHT22;800;48.824;9.346;2023-05-07T09:05:33;28.00;42.20
1614;DHT22;800;48.824;9.346;2023-05-07T09:08:00;28.00;42.50
1614;DHT22;800;48.824;9.346;2023-05-07T09:10:27;28.20;41.80
1614;DHT22;800;48.824;9.346;2023-05-07T09:12:52;28.50;41.20
1614;DHT22;800;48.824;9.346;2023-05-07T09:15:18;28.80;40.70
1614;DHT22;800;48.824;9.346;2023-05-07T09:17:44;29.10;40.50
1614;DHT22;800;48.824;9.346;2023-05-07T09:20:09;29.20;40.20
1614;DHT22;800;48.824;9.346;2023-05-07T09:22:38;29.20;39.30
1614;DHT22;800;48.824;9.346;2023-05-07T09:25:06;29.20;40.40
1614;DHT22;800;48.824;9.346;2023-05-07T09:27:32;29.50;39.80
1614;DHT22;800;48.824;9.346;2023-05-07T09:29:58;29.80;39.50
1614;DHT22;800;48.824;9.346;2023-05-07T09:32:25;29.80;38.70
1614;DHT22;800;48.824;9.346;2023-05-07T09:34:52;30.10;38.50
1614;DHT22;800;48.824;9.346;2023-05-07T09:37:18;30.40;38.40
1614;DHT22;800;48.824;9.346;2023-05-07T09:39:45;30.80;37.90
1614;DHT22;800;48.824;9.346;2023-05-07T09:42:12;30.90;36.60
1614;DHT22;800;48.824;9.346;2023-05-07T09:44:38;31.00;37.20
1614;DHT22;800;48.824;9.346;2023-05-07T09:47:07;31.10;36.70
1614;DHT22;800;48.824;9.346;2023-05-07T09:49:35;30.40;37.20
1614;DHT22;800;48.824;9.346;2023-05-07T09:52:03;30.60;37.90
1614;DHT22;800;48.824;9.346;2023-05-07T09:54:33;30.90;37.40
1614;DHT22;800;48.824;9.346;2023-05-07T09:57:01;31.20;36.80
1614;DHT22;800;48.824;9.346;2023-05-07T09:59:28;31.30;36.00
1614;DHT22;800;48.824;9.346;2023-05-07T10:01:57;31.10;35.80
1614;DHT22;800;48.824;9.346;2023-05-07T10:04:25;30.90;36.30
1614;DHT22;800;48.824;9.346;2023-05-07T10:06:51;30.90;36.30
1614;DHT22;800;48.824;9.346;2023-05-07T10:09:17;31.00;36.20
1614;DHT22;800;48.824;9.346;2023-05-07T10:11:43;31.00;36.40
1614;DHT22;800;48.824;9.346;2023-05-07T10:14:10;30.90;36.60
1614;DHT22;800;48.824;9.346;2023-05-07T10:16:36;30.90;36.70
1614;DHT22;800;48.824;9.346;2023-05-07T10:19:06;30.90;36.30
1614;DHT22;800;48.824;9.346;2023-05-07T10:21:42;31.00;36.60
1614;DHT22;800;48.824;9.346;2023-05-07T10:24:14;31.10;36.60
1614;DHT22;800;48.824;9.346;2023-05-07T10:26:48;31.20;36.40
1614;DHT22;800;48.824;9.346;2023-05-07T10:29:21;31.50;36.90
1614;DHT22;800;48.824;9.346;2023-05-07T10:32:08;31.70;35.90
1614;DHT22;800;48.824;9.346;2023-05-07T10:34:41;31.60;35.10
1614;DHT22;800;48.824;9.346;2023-05-07T10:37:09;31.70;34.60
1614;DHT22;800;48.824;9.346;2023-05-07T10:39:36;31.70;34.70
1614;DHT22;800;48.824;9.346;2023-05-07T10:42:13;31.80;34.30
1614;DHT22;800;48.824;9.346;2023-05-07T10:44:40;31.70;34.00
1614;DHT22;800;48.824;9.346;2023-05-07T10:47:11;31.90;35.80
1614;DHT22;800;48.824;9.346;2023-05-07T10:52:31;32.30;34.00
1614;DHT22;800;48.824;9.346;2023-05-07T10:57:43;32.40;33.10
1614;DHT22;800;48.824;9.346;2023-05-07T11:05:31;32.00;32.50
1614;DHT22;800;48.824;9.346;2023-05-07T11:08:01;32.00;32.90
1614;DHT22;800;48.824;9.346;2023-05-07T11:10:53;31.90;33.10
1614;DHT22;800;48.824;9.346;2023-05-07T11:16:25;32.30;32.10
1614;DHT22;800;48.824;9.346;2023-05-07T11:18:54;32.10;32.60
1614;DHT22;800;48.824;9.346;2023-05-07T11:24:01;32.00;33.40
1614;DHT22;800;48.824;9.346;2023-05-07T11:26:30;32.10;32.70
1614;DHT22;800;48.824;9.346;2023-05-07T11:28:57;32.20;32.90
1614;DHT22;800;48.824;9.346;2023-05-07T11:31:27;32.30;32.50
1614;DHT22;800;48.824;9.346;2023-05-07T11:33:54;32.30;33.10
1614;DHT22;800;48.824;9.346;2023-05-07T11:36:23;32.40;31.80
1614;DHT22;800;48.824;9.346;2023-05-07T11:38:48;32.30;32.80
1614;DHT22;800;48.824;9.346;2023-05-07T11:41:16;32.30;32.10
1614;DHT22;800;48.824;9.346;2023-05-07T11:44:03;32.00;32.20
1614;DHT22;800;48.824;9.346;2023-05-07T11:46:28;31.40;32.90
1614;DHT22;800;48.824;9.346;2023-05-07T11:48:55;31.50;32.90
1614;DHT22;800;48.824;9.346;2023-05-07T11:51:23;31.50;33.00
1614;DHT22;800;48.824;9.346;2023-05-07T11:53:49;31.20;33.00
1614;DHT22;800;48.824;9.346;2023-05-07T11:56:17;31.20;33.40
1614;DHT22;800;48.824;9.346;2023-05-07T11:58:44;31.10;33.80
1614;DHT22;800;48.824;9.346;2023-05-07T12:01:12;31.10;34.30
1614;DHT22;800;48.824;9.346;2023-05-07T12:03:40;30.50;34.90
1614;DHT22;800;48.824;9.346;2023-05-07T12:06:08;29.70;36.80
1614;DHT22;800;48.824;9.346;2023-05-07T12:08:37;29.00;37.70
1614;DHT22;800;48.824;9.346;2023-05-07T12:11:03;28.90;39.00
1614;DHT22;800;48.824;9.346;2023-05-07T12:13:32;28.90;38.80
1614;DHT22;800;48.824;9.346;2023-05-07T12:15:57;28.70;38.30
1614;DHT22;800;48.824;9.346;2023-05-07T12:18:23;28.60;38.70
1614;DHT22;800;48.824;9.346;2023-05-07T12:20:50;28.90;38.30
1614;DHT22;800;48.824;9.346;2023-05-07T12:23:16;29.10;38.40
1614;DHT22;800;48.824;9.346;2023-05-07T12:25:42;29.30;37.70
1614;DHT22;800;48.824;9.346;2023-05-07T12:28:18;29.60;36.90
1614;DHT22;800;48.824;9.346;2023-05-07T12:30:46;29.70;36.20
1614;DHT22;800;48.824;9.346;2023-05-07T12:33:16;29.70;36.40
1614;DHT22;800;48.824;9.346;2023-05-07T12:35:43;29.80;35.90
1614;DHT22;800;48.824;9.346;2023-05-07T12:38:13;29.70;35.80
1614;DHT22;800;48.824;9.346;2023-05-07T12:40:44;29.40;35.70
1614;DHT22;800;48.824;9.346;2023-05-07T12:43:27;29.20;36.10
1614;DHT22;800;48.824;9.346;2023-05-07T12:45:55;29.30;36.50
1614;DHT22;800;48.824;9.346;2023-05-07T12:48:22;29.40;36.40
1614;DHT22;800;48.824;9.346;2023-05-07T12:50:52;29.50;36.40
1614;DHT22;800;48.824;9.346;2023-05-07T12:53:21;29.40;38.20
1614;DHT22;800;48.824;9.346;2023-05-07T12:55:48;29.00;39.20
1614;DHT22;800;48.824;9.346;2023-05-07T12:58:16;28.80;39.20
1614;DHT22;800;48.824;9.346;2023-05-07T13:00:42;28.50;39.50
1614;DHT22;800;48.824;9.346;2023-05-07T13:03:09;28.50;40.20
1614;DHT22;800;48.824;9.346;2023-05-07T13:05:34;28.40;40.00
1614;DHT22;800;48.824;9.346;2023-05-07T13:08:00;28.10;40.50
1614;DHT22;800;48.824;9.346;2023-05-07T13:10:27;27.70;41.60
1614;DHT22;800;48.824;9.346;2023-05-07T13:12:52;27.50;42.70
1614;DHT22;800;48.824;9.346;2023-05-07T13:15:18;27.40;43.10
1614;DHT22;800;48.824;9.346;2023-05-07T13:17:44;26.80;43.20
1614;DHT22;800;48.824;9.346;2023-05-07T13:20:10;26.20;43.30
1614;DHT22;800;48.824;9.346;2023-05-07T13:22:37;26.10;44.50
1614;DHT22;800;48.824;9.346;2023-05-07T13:25:02;26.00;46.80
1614;DHT22;800;48.824;9.346;2023-05-07T13:27:28;25.40;49.30
1614;DHT22;800;48.824;9.346;2023-05-07T13:29:56;25.10;50.80
1614;DHT22;800;48.824;9.346;2023-05-07T13:32:21;24.40;50.80
1614;DHT22;800;48.824;9.346;2023-05-07T13:34:47;24.00;49.10
1614;DHT22;800;48.824;9.346;2023-05-07T13:37:12;23.90;48.70
1614;DHT22;800;48.824;9.346;2023-05-07T13:39:38;23.90;47.20
1614;DHT22;800;48.824;9.346;2023-05-07T13:42:04;24.30;47.20
1614;DHT22;800;48.824;9.346;2023-05-07T13:44:29;24.50;46.40
1614;DHT22;800;48.824;9.346;2023-05-07T13:46:55;24.40;43.70
1614;DHT22;800;48.824;9.346;2023-05-07T13:49:21;24.30;46.30
1614;DHT22;800;48.824;9.346;2023-05-07T13:51:46;24.20;47.90
1614;DHT22;800;48.824;9.346;2023-05-07T13:54:12;23.90;43.90
1614;DHT22;800;48.824;9.346;2023-05-07T13:56:39;23.80;45.70
1614;DHT22;800;48.824;9.346;2023-05-07T13:59:04;23.90;47.80
1614;DHT22;800;48.824;9.346;2023-05-07T14:01:31;24.00;47.70
1614;DHT22;800;48.824;9.346;2023-05-07T14:03:56;24.00;50.60
1614;DHT22;800;48.824;9.346;2023-05-07T14:06:23;24.10;52.00
1614;DHT22;800;48.824;9.346;2023-05-07T14:08:48;24.20;51.00
1614;DHT22;800;48.824;9.346;2023-05-07T14:11:14;23.50;53.10
1614;DHT22;800;48.824;9.346;2023-05-07T14:13:40;23.10;52.70
1614;DHT22;800;48.824;9.346;2023-05-07T14:16:05;22.90;51.90
1614;DHT22;800;48.824;9.346;2023-05-07T14:18:31;22.90;51.00
1614;DHT22;800;48.824;9.346;2023-05-07T14:20:58;23.10;51.70
1614;DHT22;800;48.824;9.346;2023-05-07T14:23:24;23.00;54.70
1614;DHT22;800;48.824;9.346;2023-05-07T14:25:52;22.90;55.60
1614;DHT22;800;48.824;9.346;2023-05-07T14:28:18;22.80;55.80
1614;DHT22;800;48.824;9.346;2023-05-07T14:30:43;22.70;55.80
1614;DHT22;800;48.824;9.346;2023-05-07T14:33:09;22.40;56.60
1614;DHT22;800;48.824;9.346;2023-05-07T14:35:34;22.40;57.70
1614;DHT22;800;48.824;9.346;2023-05-07T14:38:00;22.40;57.20
1614;DHT22;800;48.824;9.346;2023-05-07T14:40:26;22.20;57.60
1614;DHT22;800;48.824;9.346;2023-05-07T14:42:51;22.30;58.20
1614;DHT22;800;48.824;9.346;2023-05-07T14:45:17;22.60;57.90
1614;DHT22;800;48.824;9.346;2023-05-07T14:47:42;22.60;57.30
1614;DHT22;800;48.824;9.346;2023-05-07T14:50:08;22.70;58.00
1614;DHT22;800;48.824;9.346;2023-05-07T14:52:34;22.80;58.10
1614;DHT22;800;48.824;9.346;2023-05-07T14:55:00;22.80;58.30
1614;DHT22;800;48.824;9.346;2023-05-07T14:57:25;22.90;57.00
1614;DHT22;800;48.824;9.346;2023-05-07T14:59:51;22.90;57.30
1614;DHT22;800;48.824;9.346;2023-05-07T15:02:17;22.80;58.80
1614;DHT22;800;48.824;9.346;2023-05-07T15:04:43;22.80;58.80
1614;DHT22;800;48.824;9.346;2023-05-07T15:07:12;22.90;58.90
1614;DHT22;800;48.824;9.346;2023-05-07T15:09:41;22.90;59.10
1614;DHT22;800;48.824;9.346;2023-05-07T15:12:06;23.00;59.20
1614;DHT22;800;48.824;9.346;2023-05-07T15:14:33;23.10;59.80
1614;DHT22;800;48.824;9.346;2023-05-07T15:16:58;23.20;60.50
1614;DHT22;800;48.824;9.346;2023-05-07T15:19:24;23.20;60.70
1614;DHT22;800;48.824;9.346;2023-05-07T15:21:54;23.20;60.80
1614;DHT22;800;48.824;9.346;2023-05-07T15:24:20;23.20;59.70
1614;DHT22;800;48.824;9.346;2023-05-07T15:26:45;23.10;59.50
1614;DHT22;800;48.824;9.346;2023-05-07T15:29:11;23.10;60.10
1614;DHT22;800;48.824;9.346;2023-05-07T15:31:36;23.20;60.70
1614;DHT22;800;48.824;9.346;2023-05-07T15:34:05;23.30;60.90
1614;DHT22;800;48.824;9.346;2023-05-07T15:36:31;23.40;61.10
1614;DHT22;800;48.824;9.346;2023-05-07T15:38:57;23.40;61.20
1614;DHT22;800;48.824;9.346;2023-05-07T15:41:22;23.40;61.10
1614;DHT22;800;48.824;9.346;2023-05-07T15:43:50;23.40;60.90
1614;DHT22;800;48.824;9.346;2023-05-07T15:46:20;23.50;61.30
1614;DHT22;800;48.824;9.346;2023-05-07T15:48:47;23.50;61.30
1614;DHT22;800;48.824;9.346;2023-05-07T15:51:12;23.60;61.50
1614;DHT22;800;48.824;9.346;2023-05-07T15:53:38;23.60;62.40
1614;DHT22;800;48.824;9.346;2023-05-07T15:56:04;23.60;61.80
1614;DHT22;800;48.824;9.346;2023-05-07T15:58:31;23.60;61.70
1614;DHT22;800;48.824;9.346;2023-05-07T16:00:57;23.70;61.60
1614;DHT22;800;48.824;9.346;2023-05-07T16:03:23;23.70;61.50
1614;DHT22;800;48.824;9.346;2023-05-07T16:05:48;23.70;61.60
1614;DHT22;800;48.824;9.346;2023-05-07T16:08:14;23.70;61.80
1614;DHT22;800;48.824;9.346;2023-05-07T16:10:39;23.70;61.50
1614;DHT22;800;48.824;9.346;2023-05-07T16:13:06;23.60;60.90
1614;DHT22;800;48.824;9.346;2023-05-07T16:15:31;23.50;59.80
1614;DHT22;800;48.824;9.346;2023-05-07T16:17:57;23.40;59.10
1614;DHT22;800;48.824;9.346;2023-05-07T16:20:28;23.40;59.30
1614;DHT22;800;48.824;9.346;2023-05-07T16:22:57;23.40;60.00
1614;DHT22;800;48.824;9.346;2023-05-07T16:25:23;23.40;60.90
1614;DHT22;800;48.824;9.346;2023-05-07T16:27:48;23.30;61.10
1614;DHT22;800;48.824;9.346;2023-05-07T16:30:14;23.10;62.00